sensor_id;sensor_type;location;lat;lon;timestamp;temperature;humidity
35246;DHT22;21379;50.962;6.960;2023-04-07T00:00:26;7.80;99.90
35246;DHT22;21379;50.962;6.960;2023-04-07T00:02:53;7.80;99.90
35246;DHT22;21379;50.962;6.960;2023-04-07T00:05:20;7.80;99.90
35246;DHT22;21379;50.962;6.960;2023-04-07T00:07:47;7.80;99.90
35246;DHT22;21379;50.962;6.960;2023-04-07T00:10:14;7.90;99.90
35246;DHT22;21379;50.962;6.960;2023-04-07T00:12:42;7.90;99.90
35246;DHT22;21379;50.962;6.960;2023-04-07T00:15:09;7.80;99.90
35246;DHT22;21379;50.962;6.960;2023-04-07T00:17:36;7.90;99.90
35246;DHT22;21379;50.962;6.960;2023-04-07T00:20:04;7.90;99.90
35246;DHT22;21379;50.962;6.960;2023-04-07T00:22:31;7.80;99.90
35246;DHT22;21379;50.962;6.960;2023-04-07T00:24:58;7.90;99.90
35246;DHT22;21379;50.962;6.960;2023-04-07T00:27:25;7.90;99.90
35246;DHT22;21379;50.962;6.960;2023-04-07T00:29:54;7.90;99.90
35246;DHT22;21379;50.962;6.960;2023-04-07T00:32:21;7.90;99.90
35246;DHT22;21379;50.962;6.960;2023-04-07T00:34:48;7.90;99.90
35246;DHT22;21379;50.962;6.960;2023-04-07T00:37:15;7.90;99.90
35246;DHT22;21379;50.962;6.960;2023-04-07T00:39:42;7.90;99.90
35246;DHT22;21379;50.962;6.960;2023-04-07T00:42:09;8.00;99.90
35246;DHT22;21379;50.962;6.960;2023-04-07T00:44:36;7.90;99.90
35246;DHT22;21379;50.962;6.960;2023-04-07T00:47:04;8.00;99.90
35246;DHT22;21379;50.962;6.960;2023-04-07T00:49:31;8.00;99.90
35246;DHT22;21379;50.962;6.960;2023-04-07T00:51:58;8.00;99.90
35246;DHT22;21379;50.962;6.960;2023-04-07T00:54:25;8.00;99.90
35246;DHT22;21379;50.962;6.960;2023-04-07T00:56:52;8.00;99.90
35246;DHT22;21379;50.962;6.960;2023-04-07T00:59:19;8.00;99.90
35246;DHT22;21379;50.962;6.960;2023-04-07T01:01:52;8.00;99.90
35246;DHT22;21379;50.962;6.960;2023-04-07T01:04:26;8.00;99.90
35246;DHT22;21379;50.962;6.960;2023-04-07T01:07:00;8.00;99.90
35246;DHT22;21379;50.962;6.960;2023-04-07T01:09:37;8.00;99.90
35246;DHT22;21379;50.962;6.960;2023-04-07T01:12:13;8.10;99.90
35246;DHT22;21379;50.962;6.960;2023-04-07T01:14:46;8.10;99.90
35246;DHT22;21379;50.962;6.960;2023-04-07T01:17:36;8.00;99.90
35246;DHT22;21379;50.962;6.960;2023-04-07T01:20:06;8.10;99.90
35246;DHT22;21379;50.962;6.960;2023-04-07T01:22:40;8.10;99.90
35246;DHT22;21379;50.962;6.960;2023-04-07T01:25:25;8.10;99.90
35246;DHT22;21379;50.962;6.960;2023-04-07T01:28:01;8.20;99.90
35246;DHT22;21379;50.962;6.960;2023-04-07T01:30:39;8.20;99.90
35246;DHT22;21379;50.962;6.960;2023-04-07T01:33:08;8.20;99.90
35246;DHT22;21379;50.962;6.960;2023-04-07T01:35:36;8.20;99.90
35246;DHT22;21379;50.962;6.960;2023-04-07T01:38:05;8.20;99.90
35246;DHT22;21379;50.962;6.960;2023-04-07T01:40:33;8.20;99.90
35246;DHT22;21379;50.962;6.960;2023-04-07T01:43:01;8.30;99.90
35246;DHT22;21379;50.962;6.960;2023-04-07T01:45:29;8.30;99.90
35246;DHT22;21379;50.962;6.960;2023-04-07T01:47:59;8.30;99.90
35246;DHT22;21379;50.962;6.960;2023-04-07T01:50:27;8.30;99.90
35246;DHT22;21379;50.962;6.960;2023-04-07T01:52:56;8.40;99.90
35246;DHT22;21379;50.962;6.960;2023-04-07T01:55:24;8.40;99.90
35246;DHT22;21379;50.962;6.960;2023-04-07T01:58:03;8.40;99.90
35246;DHT22;21379;50.962;6.960;2023-04-07T02:00:31;8.40;99.90
35246;DHT22;21379;50.962;6.960;2023-04-07T02:03:06;8.40;99.90
35246;DHT22;21379;50.962;6.960;2023-04-07T02:05:35;8.40;99.90
35246;DHT22;21379;50.962;6.960;2023-04-07T02:08:07;8.40;99.90
35246;DHT22;21379;50.962;6.960;2023-04-07T02:10:38;8.50;99.90
35246;DHT22;21379;50.962;6.960;2023-04-07T02:13:06;8.50;99.90
35246;DHT22;21379;50.962;6.960;2023-04-07T02:15:35;8.50;99.90
35246;DHT22;21379;50.962;6.960;2023-04-07T02:18:05;8.50;99.90
35246;DHT22;21379;50.962;6.960;2023-04-07T02:20:37;8.50;99.90
35246;DHT22;21379;50.962;6.960;2023-04-07T02:23:06;8.50;99.90
35246;DHT22;21379;50.962;6.960;2023-04-07T02:25:34;8.60;99.90
35246;DHT22;21379;50.962;6.960;2023-04-07T02:28:03;8.60;99.90
35246;DHT22;21379;50.962;6.960;2023-04-07T02:30:31;8.70;99.90
35246;DHT22;21379;50.962;6.960;2023-04-07T02:32:58;8.60;99.90
35246;DHT22;21379;50.962;6.960;2023-04-07T02:35:26;8.70;99.90
35246;DHT22;21379;50.962;6.960;2023-04-07T02:37:53;8.70;99.90
35246;DHT22;21379;50.962;6.960;2023-04-07T02:40:20;8.70;99.90
35246;DHT22;21379;50.962;6.960;2023-04-07T02:42:47;8.70;99.90
35246;DHT22;21379;50.962;6.960;2023-04-07T02:45:14;8.70;99.90
35246;DHT22;21379;50.962;6.960;2023-04-07T02:47:41;8.80;99.90
35246;DHT22;21379;50.962;6.960;2023-04-07T02:50:09;8.80;99.90
35246;DHT22;21379;50.962;6.960;2023-04-07T02:52:37;8.80;99.90
35246;DHT22;21379;50.962;6.960;2023-04-07T02:55:10;8.80;99.90
35246;DHT22;21379;50.962;6.960;2023-04-07T02:57:37;8.90;99.90
35246;DHT22;21379;50.962;6.960;2023-04-07T03:00:09;8.80;99.90
35246;DHT22;21379;50.962;6.960;2023-04-07T03:02:55;8.90;99.90
35246;DHT22;21379;50.962;6.960;2023-04-07T03:05:22;8.90;99.90
35246;DHT22;21379;50.962;6.960;2023-04-07T03:07:50;8.90;99.90
35246;DHT22;21379;50.962;6.960;2023-04-07T03:10:17;8.90;99.90
35246;DHT22;21379;50.962;6.960;2023-04-07T03:12:44;8.90;99.90
35246;DHT22;21379;50.962;6.960;2023-04-07T03:15:11;8.90;99.90
35246;DHT22;21379;50.962;6.960;2023-04-07T03:17:43;8.90;99.90
35246;DHT22;21379;50.962;6.960;2023-04-07T03:20:10;8.90;99.90
35246;DHT22;21379;50.962;6.960;2023-04-07T03:22:37;8.90;99.90
35246;DHT22;21379;50.962;6.960;2023-04-07T03:25:10;8.90;99.90
35246;DHT22;21379;50.962;6.960;2023-04-07T03:27:37;8.90;99.90
35246;DHT22;21379;50.962;6.960;2023-04-07T03:30:08;8.90;99.90
35246;DHT22;21379;50.962;6.960;2023-04-07T03:32:35;8.90;99.90
35246;DHT22;21379;50.962;6.960;2023-04-07T03:35:02;8.90;99.90
35246;DHT22;21379;50.962;6.960;2023-04-07T03:37:28;8.90;99.90
35246;DHT22;21379;50.962;6.960;2023-04-07T03:39:55;8.90;99.90
35246;DHT22;21379;50.962;6.960;2023-04-07T03:42:31;8.90;99.90
35246;DHT22;21379;50.962;6.960;2023-04-07T03:45:05;8.90;99.90
35246;DHT22;21379;50.962;6.960;2023-04-07T03:47:33;8.90;99.90
35246;DHT22;21379;50.962;6.960;2023-04-07T03:50:02;8.90;99.90
35246;DHT22;21379;50.962;6.960;2023-04-07T03:52:33;8.90;99.90
35246;DHT22;21379;50.962;6.960;2023-04-07T03:55:10;8.90;99.90
35246;DHT22;21379;50.962;6.960;2023-04-07T03:57:39;8.90;99.90
35246;DHT22;21379;50.962;6.960;2023-04-07T04:00:07;8.80;99.90
35246;DHT22;21379;50.962;6.960;2023-04-07T04:02:41;8.80;99.90
35246;DHT22;21379;50.962;6.960;2023-04-07T04:05:12;8.80;99.90
35246;DHT22;21379;50.962;6.960;2023-04-07T04:07:39;8.80;99.90
35246;DHT22;21379;50.962;6.960;2023-04-07T04:10:07;8.70;99.90
35246;DHT22;21379;50.962;6.960;2023-04-07T04:12:41;8.70;99.90
35246;DHT22;21379;50.962;6.960;2023-04-07T04:15:10;8.70;99.90
35246;DHT22;21379;50.962;6.960;2023-04-07T04:17:38;8.70;99.90
35246;DHT22;21379;50.962;6.960;2023-04-07T04:20:07;8.70;99.90
35246;DHT22;21379;50.962;6.960;2023-04-07T04:22:44;8.70;99.90
35246;DHT22;21379;50.962;6.960;2023-04-07T04:25:11;8.70;99.90
35246;DHT22;21379;50.962;6.960;2023-04-07T04:27:44;8.70;99.90
35246;DHT22;21379;50.962;6.960;2023-04-07T04:30:18;8.60;99.90
35246;DHT22;21379;50.962;6.960;2023-04-07T04:32:51;8.70;99.90
35246;DHT22;21379;50.962;6.960;2023-04-07T04:35:24;8.70;99.90
35246;DHT22;21379;50.962;6.960;2023-04-07T04:38:07;8.60;99.90
35246;DHT22;21379;50.962;6.960;2023-04-07T04:40:37;8.60;99.90
35246;DHT22;21379;50.962;6.960;2023-04-07T04:43:06;8.60;99.90
35246;DHT22;21379;50.962;6.960;2023-04-07T04:45:36;8.60;99.90
35246;DHT22;21379;50.962;6.960;2023-04-07T04:48:04;8.60;99.90
35246;DHT22;21379;50.962;6.960;2023-04-07T04:50:31;8.60;99.90
35246;DHT22;21379;50.962;6.960;2023-04-07T04:53:00;8.60;99.90
35246;DHT22;21379;50.962;6.960;2023-04-07T04:55:27;8.60;99.90
35246;DHT22;21379;50.962;6.960;2023-04-07T04:57:54;8.60;99.90
35246;DHT22;21379;50.962;6.960;2023-04-07T05:00:33;8.60;99.90
35246;DHT22;21379;50.962;6.960;2023-04-07T05:03:03;8.60;99.90
35246;DHT22;21379;50.962;6.960;2023-04-07T05:05:35;8.60;99.90
35246;DHT22;21379;50.962;6.960;2023-04-07T05:08:03;8.50;99.90
35246;DHT22;21379;50.962;6.960;2023-04-07T05:10:37;8.50;99.90
35246;DHT22;21379;50.962;6.960;2023-04-07T05:13:07;8.60;99.90
35246;DHT22;21379;50.962;6.960;2023-04-07T05:15:36;8.60;99.90
35246;DHT22;21379;50.962;6.960;2023-04-07T05:18:06;8.50;99.90
35246;DHT22;21379;50.962;6.960;2023-04-07T05:20:34;8.50;99.90
35246;DHT22;21379;50.962;6.960;2023-04-07T05:23:01;8.50;99.90
35246;DHT22;21379;50.962;6.960;2023-04-07T05:25:32;8.50;99.90
35246;DHT22;21379;50.962;6.960;2023-04-07T05:28:02;8.50;99.90
35246;DHT22;21379;50.962;6.960;2023-04-07T05:30:30;8.50;99.90
35246;DHT22;21379;50.962;6.960;2023-04-07T05:32:58;8.40;99.90
35246;DHT22;21379;50.962;6.960;2023-04-07T05:35:38;8.40;99.90
35246;DHT22;21379;50.962;6.960;2023-04-07T05:38:05;8.40;99.90
35246;DHT22;21379;50.962;6.960;2023-04-07T05:40:32;8.40;99.90
35246;DHT22;21379;50.962;6.960;2023-04-07T05:43:02;8.40;99.90
35246;DHT22;21379;50.962;6.960;2023-04-07T05:45:31;8.40;99.90
35246;DHT22;21379;50.962;6.960;2023-04-07T05:48:00;8.40;99.90
35246;DHT22;21379;50.962;6.960;2023-04-07T05:50:36;8.40;99.90
35246;DHT22;21379;50.962;6.960;2023-04-07T05:53:07;8.40;99.90
35246;DHT22;21379;50.962;6.960;2023-04-07T05:55:35;8.30;99.90
35246;DHT22;21379;50.962;6.960;2023-04-07T05:58:03;8.30;99.90
35246;DHT22;21379;50.962;6.960;2023-04-07T06:00:35;8.30;99.90
35246;DHT22;21379;50.962;6.960;2023-04-07T06:03:09;8.30;99.90
35246;DHT22;21379;50.962;6.960;2023-04-07T06:05:48;8.30;99.90
35246;DHT22;21379;50.962;6.960;2023-04-07T06:08:17;8.30;99.90
35246;DHT22;21379;50.962;6.960;2023-04-07T06:10:44;8.30;99.90
35246;DHT22;21379;50.962;6.960;2023-04-07T06:13:11;8.30;99.90
35246;DHT22;21379;50.962;6.960;2023-04-07T06:15:38;8.30;99.90
35246;DHT22;21379;50.962;6.960;2023-04-07T06:18:05;8.30;99.90
35246;DHT22;21379;50.962;6.960;2023-04-07T06:20:33;8.30;99.90
35246;DHT22;21379;50.962;6.960;2023-04-07T06:23:00;8.30;99.90
35246;DHT22;21379;50.962;6.960;2023-04-07T06:25:27;8.30;99.90
35246;DHT22;21379;50.962;6.960;2023-04-07T06:27:55;8.20;99.90
35246;DHT22;21379;50.962;6.960;2023-04-07T06:30:22;8.30;99.90
35246;DHT22;21379;50.962;6.960;2023-04-07T06:32:49;8.30;99.90
35246;DHT22;21379;50.962;6.960;2023-04-07T06:35:17;8.30;99.90
35246;DHT22;21379;50.962;6.960;2023-04-07T06:37:45;8.30;99.90
35246;DHT22;21379;50.962;6.960;2023-04-07T06:40:12;8.40;99.90
35246;DHT22;21379;50.962;6.960;2023-04-07T06:42:39;8.30;99.90
35246;DHT22;21379;50.962;6.960;2023-04-07T06:45:15;8.40;99.90
35246;DHT22;21379;50.962;6.960;2023-04-07T06:47:42;8.30;99.90
35246;DHT22;21379;50.962;6.960;2023-04-07T06:50:09;8.30;99.90
35246;DHT22;21379;50.962;6.960;2023-04-07T06:52:36;8.40;99.90
35246;DHT22;21379;50.962;6.960;2023-04-07T06:55:05;8.30;99.90
35246;DHT22;21379;50.962;6.960;2023-04-07T06:57:33;8.40;99.90
35246;DHT22;21379;50.962;6.960;2023-04-07T07:00:00;8.30;99.90
35246;DHT22;21379;50.962;6.960;2023-04-07T07:02:27;8.30;99.90
35246;DHT22;21379;50.962;6.960;2023-04-07T07:04:54;8.30;99.90
35246;DHT22;21379;50.962;6.960;2023-04-07T07:07:21;8.30;99.90
35246;DHT22;21379;50.962;6.960;2023-04-07T07:09:48;8.20;99.90
35246;DHT22;21379;50.962;6.960;2023-04-07T07:12:16;8.30;99.90
35246;DHT22;21379;50.962;6.960;2023-04-07T07:14:46;8.30;99.90
35246;DHT22;21379;50.962;6.960;2023-04-07T07:17:13;8.30;99.90
35246;DHT22;21379;50.962;6.960;2023-04-07T07:19:40;8.30;99.90
35246;DHT22;21379;50.962;6.960;2023-04-07T07:22:07;8.40;99.90
35246;DHT22;21379;50.962;6.960;2023-04-07T07:24:35;8.40;99.90
35246;DHT22;21379;50.962;6.960;2023-04-07T07:27:02;8.40;99.90
35246;DHT22;21379;50.962;6.960;2023-04-07T07:29:30;8.40;99.90
35246;DHT22;21379;50.962;6.960;2023-04-07T07:31:57;8.40;99.90
35246;DHT22;21379;50.962;6.960;2023-04-07T07:34:24;8.40;99.90
35246;DHT22;21379;50.962;6.960;2023-04-07T07:36:51;8.40;99.90
35246;DHT22;21379;50.962;6.960;2023-04-07T07:39:18;8.40;99.90
35246;DHT22;21379;50.962;6.960;2023-04-07T07:41:45;8.40;99.90
35246;DHT22;21379;50.962;6.960;2023-04-07T07:44:12;8.40;99.90
35246;DHT22;21379;50.962;6.960;2023-04-07T07:46:40;8.40;99.90
35246;DHT22;21379;50.962;6.960;2023-04-07T07:49:07;8.50;99.90
35246;DHT22;21379;50.962;6.960;2023-04-07T07:51:34;8.60;99.90
35246;DHT22;21379;50.962;6.960;2023-04-07T07:54:01;8.60;99.90
35246;DHT22;21379;50.962;6.960;2023-04-07T07:56:28;8.70;99.90
35246;DHT22;21379;50.962;6.960;2023-04-07T07:58:55;8.70;99.90
35246;DHT22;21379;50.962;6.960;2023-04-07T08:01:22;8.70;99.90
35246;DHT22;21379;50.962;6.960;2023-04-07T08:03:50;8.80;99.90
35246;DHT22;21379;50.962;6.960;2023-04-07T08:06:17;8.80;99.90
35246;DHT22;21379;50.962;6.960;2023-04-07T08:08:44;8.80;99.90
35246;DHT22;21379;50.962;6.960;2023-04-07T08:11:13;8.90;99.90
35246;DHT22;21379;50.962;6.960;2023-04-07T08:13:40;8.90;99.90
35246;DHT22;21379;50.962;6.960;2023-04-07T08:16:10;8.90;99.90
35246;DHT22;21379;50.962;6.960;2023-04-07T08:18:36;8.90;99.90
35246;DHT22;21379;50.962;6.960;2023-04-07T08:21:05;8.90;99.90
35246;DHT22;21379;50.962;6.960;2023-04-07T08:23:32;8.80;99.90
35246;DHT22;21379;50.962;6.960;2023-04-07T08:25:59;8.90;99.90
35246;DHT22;21379;50.962;6.960;2023-04-07T08:28:26;8.90;99.90
35246;DHT22;21379;50.962;6.960;2023-04-07T08:30:53;8.90;99.90
35246;DHT22;21379;50.962;6.960;2023-04-07T08:33:21;8.90;99.90
35246;DHT22;21379;50.962;6.960;2023-04-07T08:35:48;8.90;99.90
35246;DHT22;21379;50.962;6.960;2023-04-07T08:38:16;9.00;99.90
35246;DHT22;21379;50.962;6.960;2023-04-07T08:40:43;9.10;99.90
35246;DHT22;21379;50.962;6.960;2023-04-07T08:43:12;9.10;99.90
35246;DHT22;21379;50.962;6.960;2023-04-07T08:45:41;9.10;99.90
35246;DHT22;21379;50.962;6.960;2023-04-07T08:48:13;9.10;99.90
35246;DHT22;21379;50.962;6.960;2023-04-07T08:50:44;9.20;99.90
35246;DHT22;21379;50.962;6.960;2023-04-07T08:53:12;9.10;99.90
35246;DHT22;21379;50.962;6.960;2023-04-07T08:55:41;9.10;99.90
35246;DHT22;21379;50.962;6.960;2023-04-07T08:58:09;9.10;99.90
35246;DHT22;21379;50.962;6.960;2023-04-07T09:00:38;9.20;99.90
35246;DHT22;21379;50.962;6.960;2023-04-07T09:03:07;9.10;99.90
35246;DHT22;21379;50.962;6.960;2023-04-07T09:05:34;9.20;99.90
35246;DHT22;21379;50.962;6.960;2023-04-07T09:08:02;9.20;99.90
35246;DHT22;21379;50.962;6.960;2023-04-07T09:10:29;9.30;99.90
35246;DHT22;21379;50.962;6.960;2023-04-07T09:12:58;9.30;99.90
35246;DHT22;21379;50.962;6.960;2023-04-07T09:15:29;9.30;99.90
35246;DHT22;21379;50.962;6.960;2023-04-07T09:17:56;9.30;99.90
35246;DHT22;21379;50.962;6.960;2023-04-07T09:20:24;9.30;99.90
35246;DHT22;21379;50.962;6.960;2023-04-07T09:22:51;9.30;99.90
35246;DHT22;21379;50.962;6.960;2023-04-07T09:25:19;9.40;99.90
35246;DHT22;21379;50.962;6.960;2023-04-07T09:27:55;9.40;99.90
35246;DHT22;21379;50.962;6.960;2023-04-07T09:30:23;9.40;99.90
35246;DHT22;21379;50.962;6.960;2023-04-07T09:32:51;9.40;99.90
35246;DHT22;21379;50.962;6.960;2023-04-07T09:35:18;9.40;99.90
35246;DHT22;21379;50.962;6.960;2023-04-07T09:38:00;9.50;99.90
35246;DHT22;21379;50.962;6.960;2023-04-07T09:40:28;9.50;99.90
35246;DHT22;21379;50.962;6.960;2023-04-07T09:42:55;9.50;99.90
35246;DHT22;21379;50.962;6.960;2023-04-07T09:45:25;9.60;99.90
35246;DHT22;21379;50.962;6.960;2023-04-07T09:47:53;9.50;99.90
35246;DHT22;21379;50.962;6.960;2023-04-07T09:50:32;9.50;99.90
35246;DHT22;21379;50.962;6.960;2023-04-07T09:53:00;9.50;99.90
35246;DHT22;21379;50.962;6.960;2023-04-07T09:55:29;9.50;99.90
35246;DHT22;21379;50.962;6.960;2023-04-07T09:57:57;9.60;99.90
35246;DHT22;21379;50.962;6.960;2023-04-07T10:00:25;9.60;99.90
35246;DHT22;21379;50.962;6.960;2023-04-07T10:02:52;9.60;99.90
35246;DHT22;21379;50.962;6.960;2023-04-07T10:05:19;9.70;99.90
35246;DHT22;21379;50.962;6.960;2023-04-07T10:07:49;9.90;99.90
35246;DHT22;21379;50.962;6.960;2023-04-07T10:10:17;10.00;99.90
35246;DHT22;21379;50.962;6.960;2023-04-07T10:12:44;10.00;99.90
35246;DHT22;21379;50.962;6.960;2023-04-07T10:15:12;10.00;99.90
35246;DHT22;21379;50.962;6.960;2023-04-07T10:17:45;10.00;99.90
35246;DHT22;21379;50.962;6.960;2023-04-07T10:20:14;10.00;99.90
35246;DHT22;21379;50.962;6.960;2023-04-07T10:22:43;9.90;99.90
35246;DHT22;21379;50.962;6.960;2023-04-07T10:25:13;9.80;99.90
35246;DHT22;21379;50.962;6.960;2023-04-07T10:27:46;9.70;99.90
35246;DHT22;21379;50.962;6.960;2023-04-07T10:30:17;9.60;99.90
35246;DHT22;21379;50.962;6.960;2023-04-07T10:32:48;9.60;99.90
35246;DHT22;21379;50.962;6.960;2023-04-07T10:35:16;9.60;99.90
35246;DHT22;21379;50.962;6.960;2023-04-07T10:38:10;9.60;99.90
35246;DHT22;21379;50.962;6.960;2023-04-07T10:40:38;9.60;99.90
35246;DHT22;21379;50.962;6.960;2023-04-07T10:43:06;9.40;99.90
35246;DHT22;21379;50.962;6.960;2023-04-07T10:45:55;9.40;99.90
35246;DHT22;21379;50.962;6.960;2023-04-07T10:48:26;9.40;99.90
35246;DHT22;21379;50.962;6.960;2023-04-07T10:51:16;9.40;99.90
35246;DHT22;21379;50.962;6.960;2023-04-07T10:57:12;9.40;99.90
35246;DHT22;21379;50.962;6.960;2023-04-07T10:59:42;9.40;99.90
35246;DHT22;21379;50.962;6.960;2023-04-07T11:02:32;9.50;99.90
35246;DHT22;21379;50.962;6.960;2023-04-07T11:05:01;9.50;99.90
35246;DHT22;21379;50.962;6.960;2023-04-07T11:07:51;9.50;99.90
35246;DHT22;21379;50.962;6.960;2023-04-07T11:10:20;9.50;99.90
35246;DHT22;21379;50.962;6.960;2023-04-07T11:12:58;9.50;99.90
35246;DHT22;21379;50.962;6.960;2023-04-07T11:15:25;9.50;99.90
35246;DHT22;21379;50.962;6.960;2023-04-07T11:18:11;9.60;99.90
35246;DHT22;21379;50.962;6.960;2023-04-07T11:20:49;9.80;99.90
35246;DHT22;21379;50.962;6.960;2023-04-07T11:23:18;9.90;99.90
35246;DHT22;21379;50.962;6.960;2023-04-07T11:25:47;9.90;99.90
35246;DHT22;21379;50.962;6.960;2023-04-07T11:28:15;10.00;99.90
35246;DHT22;21379;50.962;6.960;2023-04-07T11:30:47;10.00;99.90
35246;DHT22;21379;50.962;6.960;2023-04-07T11:33:17;9.90;99.90
35246;DHT22;21379;50.962;6.960;2023-04-07T11:35:51;9.90;99.90
35246;DHT22;21379;50.962;6.960;2023-04-07T11:38:20;10.00;99.90
35246;DHT22;21379;50.962;6.960;2023-04-07T11:40:48;10.00;99.90
35246;DHT22;21379;50.962;6.960;2023-04-07T11:43:16;9.90;99.90
35246;DHT22;21379;50.962;6.960;2023-04-07T11:45:43;9.80;99.90
35246;DHT22;21379;50.962;6.960;2023-04-07T11:48:26;9.90;99.90
35246;DHT22;21379;50.962;6.960;2023-04-07T11:50:54;9.90;99.90
35246;DHT22;21379;50.962;6.960;2023-04-07T11:53:26;9.90;99.90
35246;DHT22;21379;50.962;6.960;2023-04-07T11:56:04;10.10;99.90
35246;DHT22;21379;50.962;6.960;2023-04-07T11:58:32;10.10;99.90
35246;DHT22;21379;50.962;6.960;2023-04-07T12:01:00;10.10;99.90
35246;DHT22;21379;50.962;6.960;2023-04-07T12:03:31;10.10;99.90
35246;DHT22;21379;50.962;6.960;2023-04-07T12:06:00;10.10;99.90
35246;DHT22;21379;50.962;6.960;2023-04-07T12:08:37;10.20;99.90
35246;DHT22;21379;50.962;6.960;2023-04-07T12:11:04;10.40;99.90
35246;DHT22;21379;50.962;6.960;2023-04-07T12:13:32;10.40;99.90
35246;DHT22;21379;50.962;6.960;2023-04-07T12:15:59;10.40;99.90
35246;DHT22;21379;50.962;6.960;2023-04-07T12:18:27;10.50;99.90
35246;DHT22;21379;50.962;6.960;2023-04-07T12:20:54;10.50;99.90
35246;DHT22;21379;50.962;6.960;2023-04-07T12:23:24;10.50;99.90
35246;DHT22;21379;50.962;6.960;2023-04-07T12:25:51;10.80;99.90
35246;DHT22;21379;50.962;6.960;2023-04-07T12:28:18;11.00;99.90
35246;DHT22;21379;50.962;6.960;2023-04-07T12:30:45;11.10;99.90
35246;DHT22;21379;50.962;6.960;2023-04-07T12:33:13;10.80;99.90
35246;DHT22;21379;50.962;6.960;2023-04-07T12:35:40;10.70;99.90
35246;DHT22;21379;50.962;6.960;2023-04-07T12:38:07;10.60;99.90
35246;DHT22;21379;50.962;6.960;2023-04-07T12:40:36;10.70;99.90
35246;DHT22;21379;50.962;6.960;2023-04-07T12:43:03;10.60;99.90
35246;DHT22;21379;50.962;6.960;2023-04-07T12:45:30;10.70;99.90
35246;DHT22;21379;50.962;6.960;2023-04-07T12:47:58;10.80;99.90
35246;DHT22;21379;50.962;6.960;2023-04-07T12:50:25;10.70;99.90
35246;DHT22;21379;50.962;6.960;2023-04-07T12:52:53;10.60;99.90
35246;DHT22;21379;50.962;6.960;2023-04-07T12:55:20;10.80;99.90
35246;DHT22;21379;50.962;6.960;2023-04-07T12:57:48;10.70;99.90
35246;DHT22;21379;50.962;6.960;2023-04-07T13:00:15;10.80;99.90
35246;DHT22;21379;50.962;6.960;2023-04-07T13:02:42;10.80;99.90
35246;DHT22;21379;50.962;6.960;2023-04-07T13:05:09;10.70;99.90
35246;DHT22;21379;50.962;6.960;2023-04-07T13:07:37;10.60;99.90
35246;DHT22;21379;50.962;6.960;2023-04-07T13:10:05;10.50;99.90
35246;DHT22;21379;50.962;6.960;2023-04-07T13:12:34;10.50;99.90
35246;DHT22;21379;50.962;6.960;2023-04-07T13:15:03;10.60;99.90
35246;DHT22;21379;50.962;6.960;2023-04-07T13:17:30;10.60;99.90
35246;DHT22;21379;50.962;6.960;2023-04-07T13:19:57;10.90;99.90
35246;DHT22;21379;50.962;6.960;2023-04-07T13:22:23;11.00;99.90
35246;DHT22;21379;50.962;6.960;2023-04-07T13:24:50;10.90;99.90
35246;DHT22;21379;50.962;6.960;2023-04-07T13:27:17;10.80;99.90
35246;DHT22;21379;50.962;6.960;2023-04-07T13:29:44;10.90;99.90
35246;DHT22;21379;50.962;6.960;2023-04-07T13:32:13;10.90;99.90
35246;DHT22;21379;50.962;6.960;2023-04-07T13:34:41;10.90;99.90
35246;DHT22;21379;50.962;6.960;2023-04-07T13:37:08;10.90;99.90
35246;DHT22;21379;50.962;6.960;2023-04-07T13:39:35;10.80;99.90
35246;DHT22;21379;50.962;6.960;2023-04-07T13:42:02;10.70;99.90
35246;DHT22;21379;50.962;6.960;2023-04-07T13:44:30;10.70;99.90
35246;DHT22;21379;50.962;6.960;2023-04-07T13:46:57;10.70;99.90
35246;DHT22;21379;50.962;6.960;2023-04-07T13:49:25;10.80;99.90
35246;DHT22;21379;50.962;6.960;2023-04-07T13:51:52;10.90;99.90
35246;DHT22;21379;50.962;6.960;2023-04-07T13:54:19;10.90;99.90
35246;DHT22;21379;50.962;6.960;2023-04-07T13:56:47;10.90;99.90
35246;DHT22;21379;50.962;6.960;2023-04-07T13:59:15;10.80;99.90
35246;DHT22;21379;50.962;6.960;2023-04-07T14:01:42;10.80;99.90
35246;DHT22;21379;50.962;6.960;2023-04-07T14:04:09;10.70;99.90
35246;DHT22;21379;50.962;6.960;2023-04-07T14:06:38;10.70;99.90
35246;DHT22;21379;50.962;6.960;2023-04-07T14:09:05;10.80;99.90
35246;DHT22;21379;50.962;6.960;2023-04-07T14:11:33;10.80;99.90
35246;DHT22;21379;50.962;6.960;2023-04-07T14:14:00;11.00;99.90
35246;DHT22;21379;50.962;6.960;2023-04-07T14:16:27;11.00;99.90
35246;DHT22;21379;50.962;6.960;2023-04-07T14:18:54;11.10;99.90
35246;DHT22;21379;50.962;6.960;2023-04-07T14:21:22;11.10;99.90
35246;DHT22;21379;50.962;6.960;2023-04-07T14:23:50;11.20;99.90
35246;DHT22;21379;50.962;6.960;2023-04-07T14:26:17;11.20;99.90
35246;DHT22;21379;50.962;6.960;2023-04-07T14:28:44;11.20;99.90
35246;DHT22;21379;50.962;6.960;2023-04-07T14:31:12;11.20;99.90
35246;DHT22;21379;50.962;6.960;2023-04-07T14:33:40;11.10;99.90
35246;DHT22;21379;50.962;6.960;2023-04-07T14:36:07;11.00;99.90
35246;DHT22;21379;50.962;6.960;2023-04-07T14:38:34;11.00;99.90
35246;DHT22;21379;50.962;6.960;2023-04-07T14:41:02;11.00;99.90
35246;DHT22;21379;50.962;6.960;2023-04-07T14:43:30;10.90;99.90
35246;DHT22;21379;50.962;6.960;2023-04-07T14:45:57;10.90;99.90
35246;DHT22;21379;50.962;6.960;2023-04-07T14:48:24;10.90;99.90
35246;DHT22;21379;50.962;6.960;2023-04-07T14:50:51;10.90;99.90
35246;DHT22;21379;50.962;6.960;2023-04-07T14:53:18;10.90;99.90
35246;DHT22;21379;50.962;6.960;2023-04-07T14:55:46;10.90;99.90
35246;DHT22;21379;50.962;6.960;2023-04-07T14:58:14;11.00;99.90
35246;DHT22;21379;50.962;6.960;2023-04-07T15:00:41;10.90;99.90
35246;DHT22;21379;50.962;6.960;2023-04-07T15:03:08;10.80;99.90
35246;DHT22;21379;50.962;6.960;2023-04-07T15:05:35;10.80;99.90
35246;DHT22;21379;50.962;6.960;2023-04-07T15:08:02;10.80;99.90
35246;DHT22;21379;50.962;6.960;2023-04-07T15:10:28;10.90;99.90
35246;DHT22;21379;50.962;6.960;2023-04-07T15:12:57;10.90;99.90
35246;DHT22;21379;50.962;6.960;2023-04-07T15:15:26;10.90;99.90
35246;DHT22;21379;50.962;6.960;2023-04-07T15:17:52;10.90;99.90
35246;DHT22;21379;50.962;6.960;2023-04-07T15:20:19;10.90;99.90
35246;DHT22;21379;50.962;6.960;2023-04-07T15:22:46;10.80;99.90
35246;DHT22;21379;50.962;6.960;2023-04-07T15:25:13;10.70;99.90
35246;DHT22;21379;50.962;6.960;2023-04-07T15:27:41;10.60;99.90
35246;DHT22;21379;50.962;6.960;2023-04-07T15:30:08;10.60;99.90
35246;DHT22;21379;50.962;6.960;2023-04-07T15:32:36;10.70;99.90
35246;DHT22;21379;50.962;6.960;2023-04-07T15:35:04;10.80;99.90
35246;DHT22;21379;50.962;6.960;2023-04-07T15:37:32;10.70;99.90
35246;DHT22;21379;50.962;6.960;2023-04-07T15:39:59;10.60;99.90
35246;DHT22;21379;50.962;6.960;2023-04-07T15:42:26;10.50;99.90
35246;DHT22;21379;50.962;6.960;2023-04-07T15:44:52;10.50;99.90
35246;DHT22;21379;50.962;6.960;2023-04-07T15:47:19;10.60;99.90
35246;DHT22;21379;50.962;6.960;2023-04-07T15:49:47;10.60;99.90
35246;DHT22;21379;50.962;6.960;2023-04-07T15:52:14;10.60;99.90
35246;DHT22;21379;50.962;6.960;2023-04-07T15:54:41;10.60;99.90
35246;DHT22;21379;50.962;6.960;2023-04-07T15:57:08;10.60;99.90